MST,Max TemperatureF,Mean TemperatureF,Min TemperatureF,Max Dew PointF,MeanDew PointF,Min DewpointF,Max Humidity, Mean Humidity, Min Humidity, Max Sea Level PressureIn, Mean Sea Level PressureIn, Min Sea Level PressureIn, Max VisibilityMiles, Mean VisibilityMiles, Min VisibilityMiles, Max Wind SpeedMPH, Mean Wind SpeedMPH, Max Gust SpeedMPH,PrecipitationIn, CloudCover, Events, WindDirDegrees
2011-12-1,30,14,-2,27,14,-8,88,80,71,30.69,30.44,30.19,10,5,0,26,8,33,T,7,Fog-Snow,337
2011-12-2,37,15,-7,23,3,-13,87,67,47,30.36,30.07,29.88,10,6,0,22,6,28,T,5,Snow,360
2011-12-3,25,14,2,17,10,-1,86,73,60,30.29,30.22,30.14,10,10,10,15,7,17,0.00,3,,313
2011-12-4,24,15,5,16,8,0,87,73,59,30.62,30.33,30.08,10,9,1,29,12,35,T,6,Snow,332
2011-12-5,14,3,-9,1,-3,-14,78,68,58,30.62,30.54,30.43,10,10,10,16,5,21,0.00,3,,238
2011-12-6,31,11,-9,15,3,-15,83,65,47,30.40,30.29,30.19,10,10,10,24,9,31,0.00,0,,317
2011-12-7,40,27,13,20,15,8,84,62,40,30.31,30.22,30.13,10,10,10,17,6,22,0.00,1,,316
2011-12-8,26,17,7,18,14,3,92,83,74,30.31,30.20,30.06,10,9,2,13,4,15,T,6,Snow,312
2011-12-9,37,23,8,17,12,5,88,64,40,30.45,30.38,30.29,10,10,9,20,5,23,0.00,3,,291
2011-12-10,41,24,7,21,12,5,84,64,44,30.47,30.33,30.14,10,10,10,8,2,8,0.00,0,,176
2011-12-11,45,26,6,21,14,3,83,60,37,30.12,30.04,29.94,10,10,10,23,5,29,0.00,0,,327
2011-12-12,38,25,11,21,16,8,88,70,52,30.21,30.13,30.04,10,10,10,17,6,22,0.00,1,,144
2011-12-13,38,25,12,22,17,9,91,72,52,30.09,30.00,29.90,10,9,5,18,5,24,0.00,1,,155
2011-12-14,39,27,15,23,19,13,84,61,37,30.18,30.00,29.85,10,10,10,28,12,35,0.00,4,,308
2011-12-15,40,24,8,21,15,6,92,66,40,30.31,30.25,30.16,10,10,10,13,3,16,T,1,,260
2011-12-16,39,27,14,16,14,10,80,59,37,30.51,30.41,30.29,10,10,10,22,7,25,0.00,0,,319
2011-12-17,49,30,10,20,15,6,88,60,31,30.55,30.39,30.19,10,10,10,16,5,20,0.00,0,,274
2011-12-18,57,39,20,23,19,15,84,53,21,30.15,30.01,29.86,10,10,10,22,6,28,0.00,0,,311
2011-12-19,30,21,12,25,20,8,92,81,69,30.38,30.24,30.07,10,9,3,14,4,17,T,6,Snow,341
2011-12-20,47,27,6,23,13,2,91,58,25,30.25,30.01,29.83,10,10,9,22,6,26,0.00,0,,289
2011-12-21,31,25,19,28,24,16,92,80,68,30.31,29.93,29.76,10,2,0,28,11,33,0.09,8,Fog-Snow,355
2011-12-22,23,6,-12,16,1,-17,88,80,71,30.59,30.41,30.20,10,6,0,16,4,18,0.14,4,Fog,329
2011-12-23,30,10,-11,16,2,-17,82,68,53,30.58,30.47,30.23,10,9,1,15,6,18,0.11,0,,323
2011-12-24,30,15,-1,14,5,-6,79,68,57,30.70,30.59,30.48,10,10,10,13,3,15,0.00,0,,323
2011-12-25,42,22,1,21,6,-3,87,75,62,30.69,30.48,30.01,10,10,10,20,1,25,0.00,0,,249
2011-12-26,46,24,2,22,14,1,84,66,47,30.34,30.16,29.96,10,10,10,29,8,35,0.00,0,,310
2011-12-27,40,20,-1,22,10,-6,91,70,48,30.29,30.18,29.91,10,10,10,25,6,31,0.00,0,,294
2011-12-28,47,33,18,31,24,15,74,60,45,30.07,29.96,29.85,10,9,2,38,11,47,0.00,1,,293
2011-12-29,53,39,24,32,28,18,82,64,46,29.94,29.74,29.54,10,8,1,48,19,59,0.03,3,Snow,306
2011-12-30,54,37,19,31,24,15,77,54,30,30.00,29.75,29.48,10,10,10,37,14,54,0.00,0,,263
2011-12-31,49,27,5,30,20,4,85,62,38,30.49,29.94,29.44,10,7,0,49,16,64,T,4,Fog-Snow,308